sensor_id;sensor_type;location;lat;lon;timestamp;P1;durP1;ratioP1;P2;durP2;ratioP2
54139;SDS011;40046;53.254;5.900;2022-09-09T00:00:30;11.80;;;8.07;;
54139;SDS011;40046;53.254;5.900;2022-09-09T00:03:19;11.30;;;7.78;;
54139;SDS011;40046;53.254;5.900;2022-09-09T00:14:33;10.73;;;8.13;;
54139;SDS011;40046;53.254;5.900;2022-09-09T00:17:12;13.73;;;8.60;;
54139;SDS011;40046;53.254;5.900;2022-09-09T00:19:50;13.65;;;8.75;;
54139;SDS011;40046;53.254;5.900;2022-09-09T00:22:31;9.83;;;7.30;;
54139;SDS011;40046;53.254;5.900;2022-09-09T00:25:02;12.10;;;8.40;;
54139;SDS011;40046;53.254;5.900;2022-09-09T00:27:40;11.00;;;7.88;;
54139;SDS011;40046;53.254;5.900;2022-09-09T00:32:39;10.10;;;7.35;;
54139;SDS011;40046;53.254;5.900;2022-09-09T00:35:16;10.18;;;8.48;;
54139;SDS011;40046;53.254;5.900;2022-09-09T00:37:47;13.85;;;7.80;;
54139;SDS011;40046;53.254;5.900;2022-09-09T00:40:22;16.27;;;9.55;;
54139;SDS011;40046;53.254;5.900;2022-09-09T00:42:54;10.32;;;8.10;;
54139;SDS011;40046;53.254;5.900;2022-09-09T00:48:51;12.77;;;8.13;;
54139;SDS011;40046;53.254;5.900;2022-09-09T01:06:02;9.48;;;8.43;;
54139;SDS011;40046;53.254;5.900;2022-09-09T01:14:48;14.45;;;9.52;;
54139;SDS011;40046;53.254;5.900;2022-09-09T01:20:15;14.52;;;9.30;;
54139;SDS011;40046;53.254;5.900;2022-09-09T01:28:45;12.98;;;8.88;;
54139;SDS011;40046;53.254;5.900;2022-09-09T01:31:17;12.88;;;9.05;;
54139;SDS011;40046;53.254;5.900;2022-09-09T01:33:47;13.52;;;8.73;;
54139;SDS011;40046;53.254;5.900;2022-09-09T01:36:16;10.20;;;9.07;;
54139;SDS011;40046;53.254;5.900;2022-09-09T01:38:50;12.90;;;8.90;;
54139;SDS011;40046;53.254;5.900;2022-09-09T01:41:17;15.43;;;9.15;;
54139;SDS011;40046;53.254;5.900;2022-09-09T01:44:00;12.40;;;8.40;;
54139;SDS011;40046;53.254;5.900;2022-09-09T01:46:28;10.52;;;8.90;;
54139;SDS011;40046;53.254;5.900;2022-09-09T01:48:55;9.98;;;8.68;;
54139;SDS011;40046;53.254;5.900;2022-09-09T01:51:22;20.58;;;10.23;;
54139;SDS011;40046;53.254;5.900;2022-09-09T01:53:49;13.15;;;8.20;;
54139;SDS011;40046;53.254;5.900;2022-09-09T02:04:36;10.27;;;8.68;;
54139;SDS011;40046;53.254;5.900;2022-09-09T02:07:16;10.15;;;9.05;;
54139;SDS011;40046;53.254;5.900;2022-09-09T02:09:43;11.05;;;8.32;;
54139;SDS011;40046;53.254;5.900;2022-09-09T02:12:16;11.50;;;8.27;;
54139;SDS011;40046;53.254;5.900;2022-09-09T02:14:55;8.82;;;7.80;;
54139;SDS011;40046;53.254;5.900;2022-09-09T02:17:29;14.63;;;9.18;;
54139;SDS011;40046;53.254;5.900;2022-09-09T02:20:10;14.40;;;9.68;;
54139;SDS011;40046;53.254;5.900;2022-09-09T02:22:45;12.13;;;8.90;;
54139;SDS011;40046;53.254;5.900;2022-09-09T02:25:17;11.65;;;8.50;;
54139;SDS011;40046;53.254;5.900;2022-09-09T02:27:47;12.13;;;9.23;;
54139;SDS011;40046;53.254;5.900;2022-09-09T02:30:16;13.52;;;9.02;;
54139;SDS011;40046;53.254;5.900;2022-09-09T02:32:50;15.40;;;9.07;;
54139;SDS011;40046;53.254;5.900;2022-09-09T02:35:24;12.70;;;8.73;;
54139;SDS011;40046;53.254;5.900;2022-09-09T02:37:53;10.63;;;8.30;;
54139;SDS011;40046;53.254;5.900;2022-09-09T02:40:22;10.48;;;9.05;;
54139;SDS011;40046;53.254;5.900;2022-09-09T02:42:56;11.95;;;9.00;;
54139;SDS011;40046;53.254;5.900;2022-09-09T02:45:23;14.10;;;8.40;;
54139;SDS011;40046;53.254;5.900;2022-09-09T02:53:48;12.52;;;9.52;;
54139;SDS011;40046;53.254;5.900;2022-09-09T02:56:23;9.55;;;7.82;;
54139;SDS011;40046;53.254;5.900;2022-09-09T02:58:54;13.02;;;8.82;;
54139;SDS011;40046;53.254;5.900;2022-09-09T03:01:20;11.90;;;9.30;;
54139;SDS011;40046;53.254;5.900;2022-09-09T03:03:46;16.90;;;8.57;;
54139;SDS011;40046;53.254;5.900;2022-09-09T03:06:15;12.30;;;8.85;;
54139;SDS011;40046;53.254;5.900;2022-09-09T03:08:44;11.02;;;8.60;;
54139;SDS011;40046;53.254;5.900;2022-09-09T03:11:10;13.43;;;9.63;;
54139;SDS011;40046;53.254;5.900;2022-09-09T03:13:36;10.25;;;8.95;;
54139;SDS011;40046;53.254;5.900;2022-09-09T03:16:03;15.55;;;9.52;;
54139;SDS011;40046;53.254;5.900;2022-09-09T03:18:33;15.50;;;9.13;;
54139;SDS011;40046;53.254;5.900;2022-09-09T03:21:00;13.05;;;8.70;;
54139;SDS011;40046;53.254;5.900;2022-09-09T03:23:27;12.60;;;8.27;;
54139;SDS011;40046;53.254;5.900;2022-09-09T03:25:56;11.88;;;8.18;;
54139;SDS011;40046;53.254;5.900;2022-09-09T03:28:31;10.20;;;8.32;;
54139;SDS011;40046;53.254;5.900;2022-09-09T03:31:01;16.60;;;9.48;;
54139;SDS011;40046;53.254;5.900;2022-09-09T03:33:33;11.48;;;9.27;;
54139;SDS011;40046;53.254;5.900;2022-09-09T03:36:02;11.40;;;8.55;;
54139;SDS011;40046;53.254;5.900;2022-09-09T03:38:28;11.80;;;9.60;;
54139;SDS011;40046;53.254;5.900;2022-09-09T03:40:54;14.00;;;7.88;;
54139;SDS011;40046;53.254;5.900;2022-09-09T03:43:23;12.95;;;8.27;;
54139;SDS011;40046;53.254;5.900;2022-09-09T03:45:51;12.77;;;8.68;;
54139;SDS011;40046;53.254;5.900;2022-09-09T03:48:19;11.50;;;8.30;;
54139;SDS011;40046;53.254;5.900;2022-09-09T03:50:49;9.75;;;7.82;;
54139;SDS011;40046;53.254;5.900;2022-09-09T03:53:17;9.10;;;7.80;;
54139;SDS011;40046;53.254;5.900;2022-09-09T03:55:49;11.95;;;7.95;;
54139;SDS011;40046;53.254;5.900;2022-09-09T03:58:18;13.15;;;8.48;;
54139;SDS011;40046;53.254;5.900;2022-09-09T04:00:54;10.98;;;8.85;;
54139;SDS011;40046;53.254;5.900;2022-09-09T04:03:20;14.60;;;8.57;;
54139;SDS011;40046;53.254;5.900;2022-09-09T04:05:51;10.85;;;8.38;;
54139;SDS011;40046;53.254;5.900;2022-09-09T04:08:17;8.98;;;8.07;;
54139;SDS011;40046;53.254;5.900;2022-09-09T04:10:46;13.63;;;9.07;;
54139;SDS011;40046;53.254;5.900;2022-09-09T04:13:13;13.85;;;7.93;;
54139;SDS011;40046;53.254;5.900;2022-09-09T04:15:41;8.95;;;7.75;;
54139;SDS011;40046;53.254;5.900;2022-09-09T04:18:08;14.00;;;7.97;;
54139;SDS011;40046;53.254;5.900;2022-09-09T04:20:34;11.18;;;7.53;;
54139;SDS011;40046;53.254;5.900;2022-09-09T04:23:01;9.55;;;7.20;;
54139;SDS011;40046;53.254;5.900;2022-09-09T04:25:27;8.77;;;7.85;;
54139;SDS011;40046;53.254;5.900;2022-09-09T04:27:54;11.40;;;7.60;;
54139;SDS011;40046;53.254;5.900;2022-09-09T04:30:21;10.90;;;7.55;;
54139;SDS011;40046;53.254;5.900;2022-09-09T04:32:48;11.65;;;8.30;;
54139;SDS011;40046;53.254;5.900;2022-09-09T04:35:14;9.13;;;7.40;;
54139;SDS011;40046;53.254;5.900;2022-09-09T04:37:40;9.10;;;7.07;;
54139;SDS011;40046;53.254;5.900;2022-09-09T04:40:06;11.23;;;7.82;;
54139;SDS011;40046;53.254;5.900;2022-09-09T04:42:35;10.98;;;7.47;;
54139;SDS011;40046;53.254;5.900;2022-09-09T04:45:01;11.80;;;7.78;;
54139;SDS011;40046;53.254;5.900;2022-09-09T04:47:28;10.25;;;7.68;;
54139;SDS011;40046;53.254;5.900;2022-09-09T04:49:54;13.80;;;8.07;;
54139;SDS011;40046;53.254;5.900;2022-09-09T04:52:20;13.25;;;8.40;;
54139;SDS011;40046;53.254;5.900;2022-09-09T04:54:46;11.10;;;7.03;;
54139;SDS011;40046;53.254;5.900;2022-09-09T04:57:13;12.38;;;7.57;;
54139;SDS011;40046;53.254;5.900;2022-09-09T04:59:39;12.55;;;7.90;;
54139;SDS011;40046;53.254;5.900;2022-09-09T05:02:05;13.98;;;7.43;;
54139;SDS011;40046;53.254;5.900;2022-09-09T05:04:31;12.88;;;8.45;;
54139;SDS011;40046;53.254;5.900;2022-09-09T05:06:58;13.25;;;8.30;;
54139;SDS011;40046;53.254;5.900;2022-09-09T05:09:24;13.27;;;7.05;;
54139;SDS011;40046;53.254;5.900;2022-09-09T05:11:51;10.07;;;6.93;;
54139;SDS011;40046;53.254;5.900;2022-09-09T05:14:27;13.13;;;7.03;;
54139;SDS011;40046;53.254;5.900;2022-09-09T05:16:53;12.85;;;7.03;;
54139;SDS011;40046;53.254;5.900;2022-09-09T05:19:20;9.98;;;7.22;;
54139;SDS011;40046;53.254;5.900;2022-09-09T05:21:48;8.57;;;6.75;;
54139;SDS011;40046;53.254;5.900;2022-09-09T05:24:17;10.45;;;7.28;;
54139;SDS011;40046;53.254;5.900;2022-09-09T05:26:45;12.98;;;6.95;;
54139;SDS011;40046;53.254;5.900;2022-09-09T05:29:10;9.85;;;6.78;;
54139;SDS011;40046;53.254;5.900;2022-09-09T05:31:37;12.00;;;7.05;;
54139;SDS011;40046;53.254;5.900;2022-09-09T05:34:08;9.43;;;7.05;;
54139;SDS011;40046;53.254;5.900;2022-09-09T05:36:34;10.25;;;6.97;;
54139;SDS011;40046;53.254;5.900;2022-09-09T05:39:00;12.23;;;6.97;;
54139;SDS011;40046;53.254;5.900;2022-09-09T05:41:29;12.30;;;7.63;;
54139;SDS011;40046;53.254;5.900;2022-09-09T05:43:58;10.63;;;7.35;;
54139;SDS011;40046;53.254;5.900;2022-09-09T05:46:26;13.57;;;7.15;;
54139;SDS011;40046;53.254;5.900;2022-09-09T05:48:53;13.02;;;7.55;;
54139;SDS011;40046;53.254;5.900;2022-09-09T05:51:25;13.52;;;7.70;;
54139;SDS011;40046;53.254;5.900;2022-09-09T05:53:55;13.25;;;8.63;;
54139;SDS011;40046;53.254;5.900;2022-09-09T05:56:27;9.43;;;6.88;;
54139;SDS011;40046;53.254;5.900;2022-09-09T05:58:55;12.95;;;8.23;;
54139;SDS011;40046;53.254;5.900;2022-09-09T06:01:23;15.05;;;10.00;;
54139;SDS011;40046;53.254;5.900;2022-09-09T06:03:51;16.80;;;8.98;;
54139;SDS011;40046;53.254;5.900;2022-09-09T06:06:20;12.38;;;9.23;;
54139;SDS011;40046;53.254;5.900;2022-09-09T06:08:49;14.35;;;9.35;;
54139;SDS011;40046;53.254;5.900;2022-09-09T06:11:23;11.82;;;8.85;;
54139;SDS011;40046;53.254;5.900;2022-09-09T06:13:51;13.75;;;9.88;;
54139;SDS011;40046;53.254;5.900;2022-09-09T06:16:20;14.77;;;10.15;;
54139;SDS011;40046;53.254;5.900;2022-09-09T06:18:49;17.30;;;10.70;;
54139;SDS011;40046;53.254;5.900;2022-09-09T06:21:26;13.82;;;11.07;;
54139;SDS011;40046;53.254;5.900;2022-09-09T06:23:54;20.25;;;12.45;;
54139;SDS011;40046;53.254;5.900;2022-09-09T06:26:20;19.05;;;12.48;;
54139;SDS011;40046;53.254;5.900;2022-09-09T06:29:10;16.55;;;10.88;;
54139;SDS011;40046;53.254;5.900;2022-09-09T06:31:36;17.25;;;11.27;;
54139;SDS011;40046;53.254;5.900;2022-09-09T06:34:12;15.98;;;12.40;;
54139;SDS011;40046;53.254;5.900;2022-09-09T06:36:41;15.02;;;11.25;;
54139;SDS011;40046;53.254;5.900;2022-09-09T06:39:07;14.63;;;11.63;;
54139;SDS011;40046;53.254;5.900;2022-09-09T06:41:36;16.45;;;11.90;;
54139;SDS011;40046;53.254;5.900;2022-09-09T06:44:06;16.17;;;12.30;;
54139;SDS011;40046;53.254;5.900;2022-09-09T06:46:39;17.02;;;11.40;;
54139;SDS011;40046;53.254;5.900;2022-09-09T06:49:05;16.15;;;10.50;;
54139;SDS011;40046;53.254;5.900;2022-09-09T06:51:36;13.25;;;10.38;;
54139;SDS011;40046;53.254;5.900;2022-09-09T06:54:12;13.50;;;10.38;;
54139;SDS011;40046;53.254;5.900;2022-09-09T06:56:42;15.38;;;10.45;;
54139;SDS011;40046;53.254;5.900;2022-09-09T06:59:14;14.55;;;11.02;;
54139;SDS011;40046;53.254;5.900;2022-09-09T07:01:41;13.25;;;9.57;;
54139;SDS011;40046;53.254;5.900;2022-09-09T07:04:15;12.85;;;8.75;;
54139;SDS011;40046;53.254;5.900;2022-09-09T07:06:45;12.98;;;8.57;;
54139;SDS011;40046;53.254;5.900;2022-09-09T07:09:18;11.68;;;8.05;;
54139;SDS011;40046;53.254;5.900;2022-09-09T07:11:48;12.80;;;9.40;;
54139;SDS011;40046;53.254;5.900;2022-09-09T07:14:29;12.45;;;8.40;;
54139;SDS011;40046;53.254;5.900;2022-09-09T07:17:18;12.57;;;8.90;;
54139;SDS011;40046;53.254;5.900;2022-09-09T07:20:13;9.73;;;8.13;;
54139;SDS011;40046;53.254;5.900;2022-09-09T07:23:10;14.93;;;8.35;;
54139;SDS011;40046;53.254;5.900;2022-09-09T07:26:12;16.88;;;8.68;;
54139;SDS011;40046;53.254;5.900;2022-09-09T07:29:24;11.35;;;8.43;;
54139;SDS011;40046;53.254;5.900;2022-09-09T07:32:24;10.38;;;7.93;;
54139;SDS011;40046;53.254;5.900;2022-09-09T07:35:24;13.10;;;8.48;;
54139;SDS011;40046;53.254;5.900;2022-09-09T07:38:14;10.48;;;8.05;;
54139;SDS011;40046;53.254;5.900;2022-09-09T07:41:24;11.68;;;8.00;;
54139;SDS011;40046;53.254;5.900;2022-09-09T07:44:18;10.60;;;7.53;;
54139;SDS011;40046;53.254;5.900;2022-09-09T07:47:41;14.02;;;8.15;;
54139;SDS011;40046;53.254;5.900;2022-09-09T07:53:43;10.13;;;7.40;;
54139;SDS011;40046;53.254;5.900;2022-09-09T07:56:44;14.38;;;8.23;;
54139;SDS011;40046;53.254;5.900;2022-09-09T07:59:24;10.23;;;7.75;;
54139;SDS011;40046;53.254;5.900;2022-09-09T08:02:23;11.85;;;7.55;;
54139;SDS011;40046;53.254;5.900;2022-09-09T08:05:09;7.60;;;6.72;;
54139;SDS011;40046;53.254;5.900;2022-09-09T08:08:19;10.10;;;7.30;;
54139;SDS011;40046;53.254;5.900;2022-09-09T08:10:58;9.45;;;7.53;;
54139;SDS011;40046;53.254;5.900;2022-09-09T08:13:52;11.80;;;6.50;;
54139;SDS011;40046;53.254;5.900;2022-09-09T08:19:43;8.10;;;6.63;;
54139;SDS011;40046;53.254;5.900;2022-09-09T08:22:27;8.43;;;6.10;;
54139;SDS011;40046;53.254;5.900;2022-09-09T08:28:17;8.77;;;5.47;;
54139;SDS011;40046;53.254;5.900;2022-09-09T08:31:11;10.15;;;6.50;;
54139;SDS011;40046;53.254;5.900;2022-09-09T08:33:52;12.38;;;6.63;;
54139;SDS011;40046;53.254;5.900;2022-09-09T08:36:44;9.27;;;5.72;;
54139;SDS011;40046;53.254;5.900;2022-09-09T08:39:53;9.10;;;5.00;;
54139;SDS011;40046;53.254;5.900;2022-09-09T08:42:35;9.07;;;5.82;;
54139;SDS011;40046;53.254;5.900;2022-09-09T08:45:33;9.77;;;5.78;;
54139;SDS011;40046;53.254;5.900;2022-09-09T08:52:09;9.88;;;6.60;;
54139;SDS011;40046;53.254;5.900;2022-09-09T08:59:04;9.05;;;5.65;;
54139;SDS011;40046;53.254;5.900;2022-09-09T09:05:23;9.30;;;5.55;;
54139;SDS011;40046;53.254;5.900;2022-09-09T09:08:10;8.07;;;4.63;;
54139;SDS011;40046;53.254;5.900;2022-09-09T09:15:00;7.13;;;4.78;;
54139;SDS011;40046;53.254;5.900;2022-09-09T09:24:56;6.80;;;4.55;;
54139;SDS011;40046;53.254;5.900;2022-09-09T09:31:11;7.28;;;3.97;;
54139;SDS011;40046;53.254;5.900;2022-09-09T09:33:52;9.63;;;4.10;;
54139;SDS011;40046;53.254;5.900;2022-09-09T09:36:57;5.47;;;3.50;;
54139;SDS011;40046;53.254;5.900;2022-09-09T09:40:08;10.88;;;4.78;;
54139;SDS011;40046;53.254;5.900;2022-09-09T09:43:19;7.03;;;2.95;;
54139;SDS011;40046;53.254;5.900;2022-09-09T09:45:55;6.80;;;3.10;;
54139;SDS011;40046;53.254;5.900;2022-09-09T09:49:31;8.38;;;3.45;;
54139;SDS011;40046;53.254;5.900;2022-09-09T09:53:04;6.15;;;3.03;;
54139;SDS011;40046;53.254;5.900;2022-09-09T09:55:23;5.82;;;2.60;;
54139;SDS011;40046;53.254;5.900;2022-09-09T09:58:05;6.35;;;2.47;;
54139;SDS011;40046;53.254;5.900;2022-09-09T10:00:55;4.70;;;2.50;;
54139;SDS011;40046;53.254;5.900;2022-09-09T10:03:34;6.47;;;2.60;;
54139;SDS011;40046;53.254;5.900;2022-09-09T10:09:52;7.63;;;2.92;;
54139;SDS011;40046;53.254;5.900;2022-09-09T10:15:41;5.80;;;2.50;;
54139;SDS011;40046;53.254;5.900;2022-09-09T10:19:03;6.82;;;1.90;;
54139;SDS011;40046;53.254;5.900;2022-09-09T10:22:07;5.65;;;2.25;;
54139;SDS011;40046;53.254;5.900;2022-09-09T10:28:32;8.65;;;1.90;;
54139;SDS011;40046;53.254;5.900;2022-09-09T10:35:29;7.50;;;2.58;;
54139;SDS011;40046;53.254;5.900;2022-09-09T10:42:18;7.85;;;1.70;;
54139;SDS011;40046;53.254;5.900;2022-09-09T10:45:31;4.88;;;2.15;;
54139;SDS011;40046;53.254;5.900;2022-09-09T10:50:55;5.43;;;1.38;;
54139;SDS011;40046;53.254;5.900;2022-09-09T10:56:13;5.78;;;1.17;;
54139;SDS011;40046;53.254;5.900;2022-09-09T10:58:43;7.10;;;1.40;;
54139;SDS011;40046;53.254;5.900;2022-09-09T11:01:11;8.98;;;1.85;;
54139;SDS011;40046;53.254;5.900;2022-09-09T11:03:41;5.85;;;1.55;;
54139;SDS011;40046;53.254;5.900;2022-09-09T11:06:21;7.15;;;1.63;;
54139;SDS011;40046;53.254;5.900;2022-09-09T11:08:53;6.43;;;1.85;;
54139;SDS011;40046;53.254;5.900;2022-09-09T11:11:37;7.40;;;2.63;;
54139;SDS011;40046;53.254;5.900;2022-09-09T11:14:25;6.85;;;1.48;;
54139;SDS011;40046;53.254;5.900;2022-09-09T11:17:24;5.90;;;1.27;;
54139;SDS011;40046;53.254;5.900;2022-09-09T11:20:21;4.78;;;1.30;;
54139;SDS011;40046;53.254;5.900;2022-09-09T11:28:06;4.20;;;0.90;;
54139;SDS011;40046;53.254;5.900;2022-09-09T11:31:01;6.63;;;1.15;;
54139;SDS011;40046;53.254;5.900;2022-09-09T11:42:05;6.68;;;2.20;;
54139;SDS011;40046;53.254;5.900;2022-09-09T11:44:51;4.28;;;1.20;;
54139;SDS011;40046;53.254;5.900;2022-09-09T11:47:27;4.72;;;1.40;;
54139;SDS011;40046;53.254;5.900;2022-09-09T11:50:10;8.43;;;1.30;;
54139;SDS011;40046;53.254;5.900;2022-09-09T11:53:03;8.07;;;1.42;;
54139;SDS011;40046;53.254;5.900;2022-09-09T11:56:06;4.63;;;1.02;;
54139;SDS011;40046;53.254;5.900;2022-09-09T11:58:42;4.55;;;1.23;;
54139;SDS011;40046;53.254;5.900;2022-09-09T12:06:42;6.93;;;1.52;;
54139;SDS011;40046;53.254;5.900;2022-09-09T12:09:27;5.00;;;1.25;;
54139;SDS011;40046;53.254;5.900;2022-09-09T12:14:42;6.88;;;3.17;;
54139;SDS011;40046;53.254;5.900;2022-09-09T12:17:28;7.53;;;1.55;;
54139;SDS011;40046;53.254;5.900;2022-09-09T12:20:13;6.38;;;1.25;;
54139;SDS011;40046;53.254;5.900;2022-09-09T12:22:52;4.53;;;1.45;;
54139;SDS011;40046;53.254;5.900;2022-09-09T12:25:36;4.15;;;1.45;;
54139;SDS011;40046;53.254;5.900;2022-09-09T12:28:47;8.35;;;1.77;;
54139;SDS011;40046;53.254;5.900;2022-09-09T12:34:32;7.03;;;1.45;;
54139;SDS011;40046;53.254;5.900;2022-09-09T12:37:05;4.82;;;1.65;;
54139;SDS011;40046;53.254;5.900;2022-09-09T12:39:55;11.13;;;2.00;;
54139;SDS011;40046;53.254;5.900;2022-09-09T12:42:25;7.82;;;1.80;;
54139;SDS011;40046;53.254;5.900;2022-09-09T12:50:16;4.93;;;1.25;;
54139;SDS011;40046;53.254;5.900;2022-09-09T12:52:42;8.85;;;1.55;;
54139;SDS011;40046;53.254;5.900;2022-09-09T12:55:15;5.40;;;1.30;;
54139;SDS011;40046;53.254;5.900;2022-09-09T12:57:52;6.72;;;1.85;;
54139;SDS011;40046;53.254;5.900;2022-09-09T13:00:20;12.30;;;4.07;;
54139;SDS011;40046;53.254;5.900;2022-09-09T13:02:52;9.93;;;1.85;;
54139;SDS011;40046;53.254;5.900;2022-09-09T13:05:24;5.15;;;1.08;;
54139;SDS011;40046;53.254;5.900;2022-09-09T13:07:51;7.13;;;1.60;;
54139;SDS011;40046;53.254;5.900;2022-09-09T13:10:27;5.57;;;1.63;;
54139;SDS011;40046;53.254;5.900;2022-09-09T13:12:57;4.88;;;1.35;;
54139;SDS011;40046;53.254;5.900;2022-09-09T13:15:24;5.10;;;1.35;;
54139;SDS011;40046;53.254;5.900;2022-09-09T13:17:57;10.40;;;1.50;;
54139;SDS011;40046;53.254;5.900;2022-09-09T13:20:26;6.60;;;1.35;;
54139;SDS011;40046;53.254;5.900;2022-09-09T13:22:53;6.47;;;2.35;;
54139;SDS011;40046;53.254;5.900;2022-09-09T13:25:24;5.75;;;1.38;;
54139;SDS011;40046;53.254;5.900;2022-09-09T13:27:53;6.40;;;1.15;;
54139;SDS011;40046;53.254;5.900;2022-09-09T13:30:33;6.28;;;2.42;;
54139;SDS011;40046;53.254;5.900;2022-09-09T13:35:55;8.68;;;1.95;;
54139;SDS011;40046;53.254;5.900;2022-09-09T13:38:23;5.57;;;1.45;;
54139;SDS011;40046;53.254;5.900;2022-09-09T13:41:09;5.97;;;1.52;;
54139;SDS011;40046;53.254;5.900;2022-09-09T13:43:45;8.00;;;1.23;;
54139;SDS011;40046;53.254;5.900;2022-09-09T13:48:56;2.80;;;0.70;;
54139;SDS011;40046;53.254;5.900;2022-09-09T13:51:33;4.07;;;1.42;;
54139;SDS011;40046;53.254;5.900;2022-09-09T13:54:05;3.33;;;0.90;;
54139;SDS011;40046;53.254;5.900;2022-09-09T13:56:32;0.63;;;0.32;;
54139;SDS011;40046;53.254;5.900;2022-09-09T13:58:59;2.33;;;0.65;;
54139;SDS011;40046;53.254;5.900;2022-09-09T14:01:25;5.68;;;0.75;;
54139;SDS011;40046;53.254;5.900;2022-09-09T14:03:52;3.20;;;0.75;;
54139;SDS011;40046;53.254;5.900;2022-09-09T14:06:19;4.30;;;0.52;;
54139;SDS011;40046;53.254;5.900;2022-09-09T14:08:47;6.13;;;0.77;;
54139;SDS011;40046;53.254;5.900;2022-09-09T14:11:17;3.90;;;1.13;;
54139;SDS011;40046;53.254;5.900;2022-09-09T14:13:44;3.17;;;0.93;;
54139;SDS011;40046;53.254;5.900;2022-09-09T14:16:10;3.45;;;0.80;;
54139;SDS011;40046;53.254;5.900;2022-09-09T14:18:35;3.83;;;0.75;;
54139;SDS011;40046;53.254;5.900;2022-09-09T14:21:03;4.07;;;0.88;;
54139;SDS011;40046;53.254;5.900;2022-09-09T14:23:28;4.32;;;1.02;;
54139;SDS011;40046;53.254;5.900;2022-09-09T14:25:54;2.95;;;0.80;;
54139;SDS011;40046;53.254;5.900;2022-09-09T14:28:21;3.20;;;1.35;;
54139;SDS011;40046;53.254;5.900;2022-09-09T14:30:47;5.50;;;2.03;;
54139;SDS011;40046;53.254;5.900;2022-09-09T14:33:14;4.38;;;1.00;;
54139;SDS011;40046;53.254;5.900;2022-09-09T14:35:41;3.83;;;1.00;;
54139;SDS011;40046;53.254;5.900;2022-09-09T14:38:08;7.00;;;1.25;;
54139;SDS011;40046;53.254;5.900;2022-09-09T14:40:35;4.18;;;0.80;;
54139;SDS011;40046;53.254;5.900;2022-09-09T14:43:01;4.32;;;1.00;;
54139;SDS011;40046;53.254;5.900;2022-09-09T14:45:28;3.63;;;1.02;;
54139;SDS011;40046;53.254;5.900;2022-09-09T14:47:53;4.80;;;1.02;;
54139;SDS011;40046;53.254;5.900;2022-09-09T14:50:20;2.97;;;0.75;;
54139;SDS011;40046;53.254;5.900;2022-09-09T14:52:46;3.55;;;0.75;;
54139;SDS011;40046;53.254;5.900;2022-09-09T14:55:13;3.05;;;0.85;;
54139;SDS011;40046;53.254;5.900;2022-09-09T14:57:39;6.28;;;1.00;;
54139;SDS011;40046;53.254;5.900;2022-09-09T15:00:05;3.30;;;1.00;;
54139;SDS011;40046;53.254;5.900;2022-09-09T15:02:33;3.28;;;0.90;;
54139;SDS011;40046;53.254;5.900;2022-09-09T15:04:59;3.35;;;1.17;;
54139;SDS011;40046;53.254;5.900;2022-09-09T15:07:25;5.35;;;1.00;;
54139;SDS011;40046;53.254;5.900;2022-09-09T15:09:51;6.20;;;0.77;;
54139;SDS011;40046;53.254;5.900;2022-09-09T15:12:18;4.20;;;0.88;;
54139;SDS011;40046;53.254;5.900;2022-09-09T15:14:44;4.43;;;1.00;;
54139;SDS011;40046;53.254;5.900;2022-09-09T15:17:10;4.28;;;1.25;;
54139;SDS011;40046;53.254;5.900;2022-09-09T15:19:37;6.30;;;0.75;;
54139;SDS011;40046;53.254;5.900;2022-09-09T15:22:05;3.85;;;0.90;;
54139;SDS011;40046;53.254;5.900;2022-09-09T15:24:32;3.00;;;0.93;;
54139;SDS011;40046;53.254;5.900;2022-09-09T15:26:59;4.03;;;1.65;;
54139;SDS011;40046;53.254;5.900;2022-09-09T15:29:25;2.60;;;0.63;;
54139;SDS011;40046;53.254;5.900;2022-09-09T15:31:53;2.95;;;1.15;;
54139;SDS011;40046;53.254;5.900;2022-09-09T15:34:20;5.65;;;1.20;;
54139;SDS011;40046;53.254;5.900;2022-09-09T15:36:47;5.78;;;1.55;;
54139;SDS011;40046;53.254;5.900;2022-09-09T15:39:16;5.28;;;2.13;;
54139;SDS011;40046;53.254;5.900;2022-09-09T15:41:46;4.03;;;1.40;;
54139;SDS011;40046;53.254;5.900;2022-09-09T15:44:13;5.70;;;1.90;;
54139;SDS011;40046;53.254;5.900;2022-09-09T15:46:44;4.38;;;1.38;;
54139;SDS011;40046;53.254;5.900;2022-09-09T15:49:14;4.18;;;1.50;;
54139;SDS011;40046;53.254;5.900;2022-09-09T15:51:43;4.88;;;2.03;;
54139;SDS011;40046;53.254;5.900;2022-09-09T15:54:12;5.25;;;1.38;;
54139;SDS011;40046;53.254;5.900;2022-09-09T15:56:41;6.20;;;1.60;;
54139;SDS011;40046;53.254;5.900;2022-09-09T15:59:07;4.88;;;1.80;;
54139;SDS011;40046;53.254;5.900;2022-09-09T16:01:34;4.43;;;1.42;;
54139;SDS011;40046;53.254;5.900;2022-09-09T16:04:00;5.95;;;1.52;;
54139;SDS011;40046;53.254;5.900;2022-09-09T16:06:26;5.10;;;1.30;;
54139;SDS011;40046;53.254;5.900;2022-09-09T16:11:57;2.80;;;1.10;;
54139;SDS011;40046;53.254;5.900;2022-09-09T16:17:53;4.03;;;1.35;;
54139;SDS011;40046;53.254;5.900;2022-09-09T16:20:59;5.80;;;1.20;;
54139;SDS011;40046;53.254;5.900;2022-09-09T16:23:25;4.63;;;1.40;;
54139;SDS011;40046;53.254;5.900;2022-09-09T16:25:54;3.28;;;1.45;;
54139;SDS011;40046;53.254;5.900;2022-09-09T16:28:20;2.83;;;1.23;;
54139;SDS011;40046;53.254;5.900;2022-09-09T16:30:46;7.90;;;2.28;;
54139;SDS011;40046;53.254;5.900;2022-09-09T16:33:12;3.92;;;1.58;;
54139;SDS011;40046;53.254;5.900;2022-09-09T16:35:40;3.33;;;1.30;;
54139;SDS011;40046;53.254;5.900;2022-09-09T16:38:05;8.60;;;1.90;;
54139;SDS011;40046;53.254;5.900;2022-09-09T16:40:35;5.45;;;1.42;;
54139;SDS011;40046;53.254;5.900;2022-09-09T16:43:05;3.05;;;1.25;;
54139;SDS011;40046;53.254;5.900;2022-09-09T16:45:31;4.82;;;1.48;;
54139;SDS011;40046;53.254;5.900;2022-09-09T16:47:58;3.78;;;1.42;;
54139;SDS011;40046;53.254;5.900;2022-09-09T16:50:26;5.90;;;1.70;;
54139;SDS011;40046;53.254;5.900;2022-09-09T16:52:52;2.65;;;1.40;;
54139;SDS011;40046;53.254;5.900;2022-09-09T16:55:18;4.03;;;1.33;;
54139;SDS011;40046;53.254;5.900;2022-09-09T16:57:48;4.57;;;1.92;;
54139;SDS011;40046;53.254;5.900;2022-09-09T17:00:14;5.15;;;1.40;;
54139;SDS011;40046;53.254;5.900;2022-09-09T17:02:43;3.05;;;1.20;;
54139;SDS011;40046;53.254;5.900;2022-09-09T17:05:10;5.30;;;1.67;;
54139;SDS011;40046;53.254;5.900;2022-09-09T17:07:37;4.00;;;1.17;;
54139;SDS011;40046;53.254;5.900;2022-09-09T17:10:03;7.03;;;2.05;;
54139;SDS011;40046;53.254;5.900;2022-09-09T17:12:30;5.57;;;1.48;;
54139;SDS011;40046;53.254;5.900;2022-09-09T17:14:57;5.40;;;1.65;;
54139;SDS011;40046;53.254;5.900;2022-09-09T17:17:24;5.03;;;1.67;;
54139;SDS011;40046;53.254;5.900;2022-09-09T17:19:51;5.35;;;2.03;;
54139;SDS011;40046;53.254;5.900;2022-09-09T17:22:17;4.38;;;1.67;;
54139;SDS011;40046;53.254;5.900;2022-09-09T17:24:45;5.82;;;1.98;;
54139;SDS011;40046;53.254;5.900;2022-09-09T17:27:11;6.70;;;1.40;;
54139;SDS011;40046;53.254;5.900;2022-09-09T17:29:38;3.17;;;1.40;;
54139;SDS011;40046;53.254;5.900;2022-09-09T17:32:04;3.50;;;1.70;;
54139;SDS011;40046;53.254;5.900;2022-09-09T17:34:32;3.55;;;1.40;;
54139;SDS011;40046;53.254;5.900;2022-09-09T17:36:59;5.82;;;1.95;;
54139;SDS011;40046;53.254;5.900;2022-09-09T17:39:24;4.15;;;1.60;;
54139;SDS011;40046;53.254;5.900;2022-09-09T17:41:51;6.28;;;1.85;;
54139;SDS011;40046;53.254;5.900;2022-09-09T17:44:17;7.10;;;1.98;;
54139;SDS011;40046;53.254;5.900;2022-09-09T17:46:44;6.57;;;2.08;;
54139;SDS011;40046;53.254;5.900;2022-09-09T17:49:12;3.75;;;1.48;;
54139;SDS011;40046;53.254;5.900;2022-09-09T17:51:39;8.88;;;1.90;;
54139;SDS011;40046;53.254;5.900;2022-09-09T17:54:07;4.47;;;1.50;;
54139;SDS011;40046;53.254;5.900;2022-09-09T17:56:41;6.53;;;2.67;;
54139;SDS011;40046;53.254;5.900;2022-09-09T17:59:08;6.32;;;2.35;;
54139;SDS011;40046;53.254;5.900;2022-09-09T18:01:35;8.32;;;2.35;;